Time;durP1;ratioP1;P1;durP2;ratioP2;P2;SDS_P1;SDS_P2;PMS_P1;PMS_P2;Temp;Humidity;BMP_temperature;BMP_pressure;BME280_temperature;BME280_humidity;BME280_pressure;Samples;Min_cycle;Max_cycle;Signal;HPM_P1;HPM_P2
2021/12/16 00:01:51;;;;;;;74.95;34.20;;;;;;;9.02;87.52;103080.91;5116473;28;20039;-70
2021/12/16 00:07:20;;;;;;;81.55;34.40;;;;;;;8.98;87.98;103073.19;5113645;28;20047;-70
2021/12/16 00:10:24;;;;;;;84.70;35.60;;;;;;;8.87;88.59;103075.59;5113896;28;20652;-70
2021/12/16 00:34:49;;;;;;;84.57;36.92;;;;;;;8.87;88.54;103087.03;5128912;27;20067;-70
2021/12/16 00:37:17;;;;;;;88.90;37.85;;;;;;;8.83;89.01;103088.16;5112946;28;20047;-70
2021/12/16 00:39:45;;;;;;;83.78;36.00;;;;;;;8.78;89.06;103091.03;5129636;28;20039;-70
2021/12/16 00:42:31;;;;;;;87.78;37.72;;;;;;;8.83;89.42;103096.09;5130739;27;20075;-70
2021/12/16 00:45:19;;;;;;;90.90;35.60;;;;;;;9.08;87.68;103082.34;5130438;28;20073;-70
2021/12/16 00:47:50;;;;;;;90.90;37.63;;;;;;;8.88;88.75;103080.81;5128022;28;20044;-70
2021/12/16 00:50:23;;;;;;;89.82;36.70;;;;;;;8.90;88.79;103078.94;5116749;28;20395;-70
2021/12/16 00:55:47;;;;;;;80.80;36.45;;;;;;;8.97;88.38;103082.94;5130157;28;20053;-71
2021/12/16 00:58:17;;;;;;;86.53;37.35;;;;;;;8.91;88.33;103091.22;5129191;27;20035;-70
2021/12/16 01:00:54;;;;;;;85.53;36.78;;;;;;;8.91;89.13;103096.50;5129222;27;20583;-70
2021/12/16 01:03:38;;;;;;;80.25;35.55;;;;;;;8.99;88.19;103086.34;5128093;27;20122;-71
2021/12/16 01:34:37;;;;;;;88.63;36.95;;;;;;;8.83;89.06;103107.53;5116734;28;20083;-70
2021/12/16 01:37:37;;;;;;;84.88;36.65;;;;;;;8.69;89.19;103107.44;5115564;28;20488;-70
2021/12/16 01:45:30;;;;;;;89.38;36.75;;;;;;;8.71;89.12;103112.66;5115577;28;20048;-70
2021/12/16 01:50:57;;;;;;;86.97;36.75;;;;;;;8.79;89.20;103115.75;5126278;28;20107;-68
2021/12/16 01:56:24;;;;;;;98.65;37.67;;;;;;;8.73;89.00;103124.88;5108946;28;20574;-69
2021/12/16 01:58:52;;;;;;;96.43;37.25;;;;;;;8.81;89.10;103121.81;5110364;28;20492;-69
2021/12/16 02:01:28;;;;;;;85.07;36.83;;;;;;;8.81;88.92;103120.00;5122495;27;20039;-69
2021/12/16 02:04:01;;;;;;;96.72;38.00;;;;;;;8.78;88.80;103114.88;5129324;28;20123;-70
2021/12/16 02:09:19;;;;;;;83.32;36.42;;;;;;;8.73;89.44;103126.66;5129094;27;20035;-70
2021/12/16 02:12:02;;;;;;;90.15;36.85;;;;;;;8.79;89.06;103118.38;5129407;28;20458;-70
2021/12/16 02:34:42;;;;;;;89.38;36.08;;;;;;;8.70;89.18;103117.09;5129898;27;20047;-70
2021/12/16 02:36:44;;;;;;;85.75;36.60;;;;;;;8.75;89.46;103130.06;5109851;28;20089;-70
2021/12/16 02:39:23;;;;;;;82.40;35.90;;;;;;;8.81;88.89;103127.09;5109651;28;20424;-70
2021/12/16 02:41:57;;;;;;;91.30;37.00;;;;;;;8.82;88.41;103121.72;5108041;28;20048;-70
2021/12/16 02:44:32;;;;;;;98.38;38.70;;;;;;;8.69;89.37;103122.47;5092292;28;20059;-70
2021/12/16 02:49:51;;;;;;;;;;;;;;;8.74;89.03;103141.59;5132463;27;20049;-70
2021/12/16 02:52:20;;;;;;;92.68;36.72;;;;;;;8.83;88.84;103133.16;5129761;27;19929;-70
2021/12/16 02:54:48;;;;;;;86.55;37.45;;;;;;;9.00;87.63;103130.44;5129704;27;20096;-71
2021/12/16 02:57:17;;;;;;;88.53;36.83;;;;;;;8.78;88.73;103136.03;5128077;27;20085;-69
2021/12/16 02:59:45;;;;;;;90.97;36.58;;;;;;;8.81;88.95;103137.69;5114590;28;20039;-70
2021/12/16 03:02:17;;;;;;;97.93;37.50;;;;;;;8.73;89.05;103131.94;5114507;28;20080;-70
2021/12/16 03:04:48;;;;;;;86.32;37.13;;;;;;;8.79;88.77;103135.13;5115916;27;20059;-70
2021/12/16 03:07:17;;;;;;;95.85;37.63;;;;;;;8.73;88.80;103129.28;5114339;28;20131;-70
2021/12/16 03:10:17;;;;;;;89.93;38.08;;;;;;;8.61;89.51;103131.66;5114757;28;20046;-70
2021/12/16 03:12:49;;;;;;;88.28;36.08;;;;;;;8.59;89.72;103135.34;5115074;28;20073;-69
2021/12/16 03:15:40;;;;;;;92.15;36.53;;;;;;;8.74;88.92;103129.22;5114708;28;20138;-69
2021/12/16 03:18:26;;;;;;;86.38;35.22;;;;;;;8.60;89.11;103131.75;5104303;28;20032;-69
2021/12/16 03:21:00;;;;;;;91.72;36.95;;;;;;;8.66;89.20;103131.44;5077343;28;20040;-69
2021/12/16 03:23:51;;;;;;;91.13;36.42;;;;;;;8.55;89.22;103132.00;5095173;28;20493;-69
2021/12/16 03:32:19;;;;;;;83.15;35.10;;;;;;;8.38;89.55;103135.50;5075085;28;20093;-69
2021/12/16 03:37:27;;;;;;;82.20;35.47;;;;;;;8.34;89.48;103143.69;5115276;28;20040;-69
2021/12/16 03:40:07;;;;;;;88.15;38.17;;;;;;;8.28;89.59;103134.31;5115018;28;20126;-68
2021/12/16 03:42:40;;;;;;;85.78;35.33;;;;;;;8.26;90.04;103137.03;5097867;28;20142;-68
2021/12/16 03:46:25;;;;;;;86.40;37.00;;;;;;;8.28;90.09;103134.31;5114004;28;20100;-68
2021/12/16 03:48:10;;;;;;;86.03;35.85;;;;;;;8.27;89.89;103144.00;5108223;28;20040;-68
2021/12/16 03:50:37;;;;;;;88.18;36.25;;;;;;;8.31;89.55;103135.91;5113871;28;20096;-70
2021/12/16 03:53:06;;;;;;;86.20;36.63;;;;;;;8.28;89.59;103142.22;5114135;28;20069;-69
2021/12/16 03:55:34;;;;;;;87.07;37.03;;;;;;;8.31;89.82;103151.78;5115065;28;20492;-69
2021/12/16 03:58:03;;;;;;;84.22;35.60;;;;;;;8.29;89.92;103143.94;5114721;28;20046;-69
2021/12/16 04:00:37;;;;;;;83.40;35.58;;;;;;;8.29;89.87;103146.56;5113990;28;20048;-69
2021/12/16 04:03:04;;;;;;;86.05;35.97;;;;;;;8.24;90.07;103151.25;5114658;28;20496;-69
2021/12/16 04:05:38;;;;;;;78.32;33.97;;;;;;;8.27;89.86;103151.94;5113076;28;20047;-69
2021/12/16 04:08:07;;;;;;;82.43;35.22;;;;;;;8.26;89.52;103157.34;5114789;28;20093;-69
2021/12/16 04:10:47;;;;;;;87.13;36.08;;;;;;;8.24;89.73;103153.88;5112879;28;20054;-69
2021/12/16 04:13:19;;;;;;;86.97;36.13;;;;;;;8.21;89.60;103162.00;5114154;28;20096;-69
2021/12/16 04:15:52;;;;;;;86.72;35.17;;;;;;;8.20;89.74;103162.91;5113604;28;20127;-69
2021/12/16 04:18:20;;;;;;;79.45;35.28;;;;;;;8.20;89.87;103155.84;5114672;28;20051;-69
2021/12/16 04:20:48;;;;;;;77.72;34.42;;;;;;;8.21;89.73;103154.06;5113595;28;20411;-69
2021/12/16 04:23:15;;;;;;;86.93;35.28;;;;;;;8.22;89.59;103161.91;5116536;28;20047;-69
2021/12/16 04:25:45;;;;;;;87.18;36.13;;;;;;;8.20;89.61;103152.34;5126973;28;20051;-71
2021/12/16 04:28:24;;;;;;;78.63;36.55;;;;;;;8.24;90.35;103151.25;5124254;28;20092;-69
2021/12/16 04:30:54;;;;;;;85.43;36.03;;;;;;;8.10;90.28;103154.63;5114411;28;20090;-69
2021/12/16 04:33:24;;;;;;;82.00;35.40;;;;;;;8.16;90.35;103167.50;5095516;28;20043;-70
2021/12/16 04:35:52;;;;;;;85.97;35.83;;;;;;;8.16;89.71;103164.88;5099608;28;20055;-69
2021/12/16 04:38:19;;;;;;;85.05;35.58;;;;;;;8.17;90.01;103155.16;5093668;28;20044;-69
2021/12/16 04:40:48;;;;;;;85.75;36.28;;;;;;;8.16;90.41;103159.56;5093865;28;20048;-69
2021/12/16 04:43:21;;;;;;;84.35;36.05;;;;;;;8.19;90.07;103171.81;5094021;28;20048;-69
2021/12/16 04:45:58;;;;;;;91.97;36.83;;;;;;;8.20;90.20;103170.84;5112168;28;20143;-69
2021/12/16 04:48:26;;;;;;;87.07;36.90;;;;;;;8.30;89.69;103164.16;5106582;28;20046;-69
2021/12/16 04:50:53;;;;;;;94.40;37.60;;;;;;;8.26;90.01;103167.91;5096533;28;20077;-69
2021/12/16 04:53:21;;;;;;;87.68;36.47;;;;;;;8.28;89.74;103171.31;5114705;28;20500;-69
2021/12/16 04:55:51;;;;;;;88.70;35.72;;;;;;;8.18;90.28;103178.00;5113336;28;20036;-69
2021/12/16 04:58:21;;;;;;;79.28;34.63;;;;;;;8.08;90.03;103173.19;5114443;28;20044;-69
2021/12/16 05:00:48;;;;;;;84.60;35.15;;;;;;;8.08;90.18;103172.34;5114020;28;20549;-69
2021/12/16 05:03:19;;;;;;;93.53;36.55;;;;;;;8.03;90.19;103172.56;5113755;28;20122;-69
2021/12/16 05:05:46;;;;;;;87.03;35.92;;;;;;;8.02;90.72;103170.88;5112001;28;20146;-70
2021/12/16 05:08:13;;;;;;;78.30;35.15;;;;;;;8.02;90.29;103160.31;5114093;28;20035;-69
2021/12/16 05:10:47;;;;;;;83.13;35.72;;;;;;;8.01;90.50;103165.66;5113555;28;20054;-69
2021/12/16 05:13:19;;;;;;;84.88;36.83;;;;;;;8.02;90.36;103165.59;5112733;28;20039;-70
2021/12/16 05:15:47;;;;;;;88.63;36.92;;;;;;;7.97;90.79;103164.13;5111780;28;20054;-69
2021/12/16 05:18:21;;;;;;;83.25;36.33;;;;;;;7.95;90.41;103168.59;5093418;28;20489;-70
2021/12/16 05:20:53;;;;;;;76.30;35.50;;;;;;;7.91;89.89;103164.41;5092798;28;20059;-70
2021/12/16 05:28:52;;;;;;;86.65;36.00;;;;;;;7.78;90.34;103164.16;5131257;27;20383;-68
2021/12/16 05:31:22;;;;;;;94.43;37.03;;;;;;;7.81;89.81;103171.94;5127990;28;20044;-69
2021/12/16 05:33:52;;;;;;;90.85;38.60;;;;;;;7.75;90.11;103170.47;5115283;27;20501;-68
2021/12/16 05:36:19;;;;;;;81.70;37.05;;;;;;;7.72;90.49;103167.13;5127642;28;20408;-69
2021/12/16 05:38:47;;;;;;;90.47;35.70;;;;;;;7.71;90.12;103175.97;5125323;27;20039;-69
2021/12/16 05:41:17;;;;;;;79.70;36.17;;;;;;;7.68;90.22;103175.19;5130706;28;20051;-69
2021/12/16 05:43:47;;;;;;;88.05;36.60;;;;;;;7.66;90.07;103179.72;5129945;28;20058;-69
2021/12/16 05:46:16;;;;;;;78.78;36.05;;;;;;;7.61;89.97;103186.16;5130327;27;20035;-69
2021/12/16 05:48:47;;;;;;;79.05;36.15;;;;;;;7.56;90.12;103183.72;5125318;27;20127;-69
2021/12/16 05:51:22;;;;;;;82.07;35.45;;;;;;;7.53;89.73;103183.88;5125774;28;20047;-69
2021/12/16 05:53:51;;;;;;;97.82;36.80;;;;;;;7.45;90.36;103189.50;5110362;28;20501;-68
2021/12/16 05:56:29;;;;;;;86.80;35.90;;;;;;;7.35;90.23;103209.41;5108948;28;20040;-69
2021/12/16 05:58:58;;;;;;;81.93;34.58;;;;;;;7.22;90.89;103206.47;5110281;28;20040;-69
2021/12/16 06:01:29;;;;;;;85.85;37.47;;;;;;;7.17;91.14;103207.59;5108707;28;20069;-69
2021/12/16 06:03:57;;;;;;;91.07;37.10;;;;;;;7.07;91.15;103215.94;5108315;28;20090;-69
2021/12/16 06:06:25;;;;;;;84.43;37.00;;;;;;;7.10;91.23;103217.59;5091790;28;20039;-69
2021/12/16 06:08:54;;;;;;;94.38;38.50;;;;;;;7.07;91.52;103213.28;5109809;28;20050;-68
2021/12/16 06:11:26;;;;;;;76.93;34.22;;;;;;;7.05;91.37;103215.16;5109766;28;20044;-69
2021/12/16 06:14:01;;;;;;;;;;;;;;;7.05;91.23;103217.78;5110105;28;20523;-69
2021/12/16 06:27:46;;;;;;;92.45;36.08;;;;;;;6.94;91.35;103240.34;5129819;28;20490;-69
2021/12/16 06:30:17;;;;;;;85.80;35.28;;;;;;;6.95;91.31;103249.94;5128178;27;20047;-69
2021/12/16 06:32:45;;;;;;;88.35;35.80;;;;;;;6.92;91.33;103243.03;5129651;27;20445;-68
2021/12/16 06:35:12;;;;;;;85.70;36.60;;;;;;;6.96;90.95;103241.13;5128176;28;20408;-69
2021/12/16 06:37:39;;;;;;;87.55;36.55;;;;;;;6.99;91.07;103252.41;5116111;28;20050;-69
2021/12/16 06:40:17;;;;;;;78.65;35.72;;;;;;;7.02;90.72;103241.72;5124791;28;20046;-69
2021/12/16 06:43:00;;;;;;;103.00;35.92;;;;;;;7.06;90.94;103243.28;5094178;28;20040;-69
2021/12/16 06:45:33;;;;;;;79.15;35.60;;;;;;;7.02;91.05;103240.84;5093980;28;20040;-68
2021/12/16 06:48:06;;;;;;;90.05;35.83;;;;;;;7.01;90.38;103242.63;5097653;28;20047;-69
2021/12/16 06:50:44;;;;;;;97.43;36.55;;;;;;;7.04;90.99;103260.97;5084025;27;20045;-69
2021/12/16 06:53:16;;;;;;;89.55;36.85;;;;;;;7.07;90.53;103254.69;5097206;28;20074;-69
2021/12/16 06:55:51;;;;;;;86.13;37.58;;;;;;;7.06;90.82;103248.56;5113571;28;20093;-69
2021/12/16 06:58:28;;;;;;;83.78;35.35;;;;;;;7.13;91.26;103256.19;5115543;28;20118;-70
2021/12/16 07:01:18;;;;;;;85.80;35.80;;;;;;;7.26;90.05;103257.34;5115303;28;20147;-70
2021/12/16 07:03:47;;;;;;;86.20;35.05;;;;;;;7.28;89.29;103252.84;5112577;28;20071;-70
2021/12/16 07:06:18;;;;;;;84.78;36.40;;;;;;;7.32;89.66;103264.13;5097460;28;20047;-70
2021/12/16 07:08:48;;;;;;;95.45;36.30;;;;;;;7.24;89.60;103259.19;5080458;28;20040;-71
2021/12/16 07:11:15;;;;;;;89.72;37.03;;;;;;;7.16;89.20;103266.63;5097686;28;20403;-70
2021/12/16 07:13:45;;;;;;;90.07;36.03;;;;;;;7.19;89.97;103266.47;5115406;28;20043;-70
2021/12/16 07:16:13;;;;;;;86.25;36.03;;;;;;;7.20;89.61;103273.47;5115339;28;20047;-69
2021/12/16 07:18:40;;;;;;;85.03;36.58;;;;;;;7.16;90.15;103278.03;5114410;27;20047;-68
2021/12/16 07:21:07;;;;;;;85.20;35.75;;;;;;;7.07;90.69;103291.63;5135358;27;20054;-68
2021/12/16 07:23:34;;;;;;;91.00;36.25;;;;;;;7.04;90.48;103295.28;5126858;27;20126;-69
2021/12/16 07:26:01;;;;;;;91.40;38.03;;;;;;;7.01;90.82;103291.91;5135444;27;20446;-68
2021/12/16 07:28:28;;;;;;;100.28;38.40;;;;;;;7.05;90.87;103301.41;5132313;27;20406;-69
2021/12/16 07:30:57;;;;;;;96.97;38.08;;;;;;;7.06;90.96;103311.91;5133946;27;20044;-69
2021/12/16 07:33:24;;;;;;;87.40;36.55;;;;;;;7.06;91.55;103301.34;5132184;27;20043;-68
2021/12/16 07:35:51;;;;;;;90.28;37.78;;;;;;;7.17;91.05;103313.19;5119662;27;20040;-69
2021/12/16 07:38:21;;;;;;;91.85;37.40;;;;;;;7.24;91.42;103319.91;5114778;28;20040;-68
2021/12/16 07:40:50;;;;;;;95.38;38.15;;;;;;;7.29;91.22;103324.09;5113370;28;20124;-70
2021/12/16 07:46:04;;;;;;;97.88;37.47;;;;;;;7.39;91.68;103336.88;5113281;28;20070;-69
2021/12/16 07:48:31;;;;;;;89.85;38.05;;;;;;;7.46;90.70;103339.16;5113735;28;20268;-69
2021/12/16 07:51:01;;;;;;;94.68;39.03;;;;;;;7.57;90.56;103330.72;5112755;28;20043;-69
2021/12/16 07:53:27;;;;;;;90.10;36.63;;;;;;;7.59;90.39;103333.31;5112605;28;20041;-68
2021/12/16 07:55:55;;;;;;;88.15;38.17;;;;;;;7.61;90.85;103331.44;5113619;27;20122;-68
2021/12/16 07:58:23;;;;;;;93.60;37.67;;;;;;;7.63;90.79;103341.00;5112164;28;20506;-69
2021/12/16 08:00:51;;;;;;;87.15;37.13;;;;;;;7.71;91.14;103347.72;5112337;28;20396;-68
2021/12/16 08:03:20;;;;;;;90.53;37.45;;;;;;;7.73;91.02;103337.94;5112641;27;20032;-69
2021/12/16 08:05:53;;;;;;;86.35;37.63;;;;;;;7.77;90.63;103339.53;5094433;28;20059;-69
2021/12/16 08:08:22;;;;;;;90.63;38.28;;;;;;;7.80;90.58;103340.19;5102506;27;20082;-68
2021/12/16 08:10:51;;;;;;;92.00;38.25;;;;;;;7.83;91.17;103337.44;5111916;28;20096;-68
2021/12/16 08:13:17;;;;;;;85.22;36.75;;;;;;;7.92;91.01;103348.50;5105571;27;20040;-69
2021/12/16 08:15:45;;;;;;;89.75;37.75;;;;;;;7.90;91.18;103345.94;5090587;27;20036;-68
2021/12/16 08:18:12;;;;;;;89.03;36.80;;;;;;;7.92;91.20;103349.34;5110730;27;20036;-68
2021/12/16 08:20:39;;;;;;;96.93;38.00;;;;;;;7.94;91.39;103344.84;5112372;28;20377;-69
2021/12/16 08:23:06;;;;;;;91.40;38.63;;;;;;;8.00;91.50;103352.47;5110467;28;20069;-68
2021/12/16 08:25:34;;;;;;;90.50;38.10;;;;;;;8.16;90.76;103357.03;5103280;27;20043;-67
2021/12/16 08:28:03;;;;;;;88.70;37.13;;;;;;;8.20;90.69;103355.94;5109317;27;20043;-67
2021/12/16 08:30:34;;;;;;;89.53;36.50;;;;;;;8.01;90.92;103359.47;5119260;27;20566;-69
2021/12/16 08:33:05;;;;;;;96.40;39.25;;;;;;;7.90;91.53;103369.72;5111515;28;20063;-68
2021/12/16 08:35:32;;;;;;;91.28;37.47;;;;;;;8.02;91.22;103365.63;5097792;27;20112;-68
2021/12/16 08:37:59;;;;;;;97.55;37.63;;;;;;;8.08;90.80;103375.91;5122247;27;20039;-69
2021/12/16 08:40:26;;;;;;;94.18;39.33;;;;;;;8.09;90.76;103372.31;5108874;27;20605;-68
2021/12/16 08:42:53;;;;;;;95.90;38.58;;;;;;;8.18;90.89;103366.59;5083986;28;20039;-68
2021/12/16 08:45:26;;;;;;;94.13;37.65;;;;;;;8.15;90.77;103368.53;5094704;28;20054;-68
2021/12/16 08:47:54;;;;;;;82.93;36.85;;;;;;;8.35;90.01;103371.09;5110564;28;20445;-67
2021/12/16 08:50:25;;;;;;;93.38;37.05;;;;;;;8.18;90.16;103378.97;5120989;28;20045;-68
2021/12/16 08:52:54;;;;;;;;;;;;;;;8.30;90.01;103382.81;5114852;27;20043;-68
2021/12/16 08:55:22;;;;;;;88.97;36.65;;;;;;;8.33;89.39;103380.88;5098363;27;19927;-69
2021/12/16 08:57:49;;;;;;;87.20;36.78;;;;;;;8.38;89.31;103386.78;5087970;28;20039;-69
2021/12/16 09:00:23;;;;;;;92.70;37.60;;;;;;;8.39;89.22;103390.31;5109161;28;20488;-69
2021/12/16 09:02:49;;;;;;;92.13;37.60;;;;;;;8.43;89.05;103397.19;5098303;28;20040;-69
2021/12/16 09:05:17;;;;;;;86.20;37.28;;;;;;;8.24;90.33;103395.41;5110227;28;20396;-70
2021/12/16 09:07:48;;;;;;;89.88;37.47;;;;;;;8.19;90.02;103389.47;5077356;28;20110;-67
2021/12/16 09:10:21;;;;;;;97.40;38.15;;;;;;;8.10;90.60;103404.94;5113010;28;20048;-68
2021/12/16 09:13:00;;;;;;;99.65;39.67;;;;;;;8.10;90.77;103411.06;5096831;28;20043;-68
2021/12/16 09:15:28;;;;;;;103.88;39.75;;;;;;;8.21;91.20;103416.69;5107515;27;20050;-67
2021/12/16 09:17:55;;;;;;;106.65;41.78;;;;;;;8.19;90.92;103421.22;5106706;28;20544;-67
2021/12/16 09:20:22;;;;;;;108.63;40.75;;;;;;;8.21;91.26;103421.13;5093058;28;20039;-68
2021/12/16 09:22:49;;;;;;;117.88;41.05;;;;;;;8.35;90.75;103420.47;5084546;28;20047;-68
2021/12/16 09:25:17;;;;;;;128.20;44.10;;;;;;;8.34;90.62;103424.91;5097353;28;20040;-69
2021/12/16 09:27:44;;;;;;;133.95;44.40;;;;;;;8.35;90.22;103420.47;5062885;28;20051;-63
2021/12/16 09:30:15;;;;;;;123.05;44.15;;;;;;;8.36;90.26;103430.13;5097350;28;20652;-64
2021/12/16 09:32:43;;;;;;;125.68;44.50;;;;;;;8.32;90.77;103436.50;5103855;28;20036;-63
2021/12/16 09:35:10;;;;;;;133.25;43.13;;;;;;;8.25;91.13;103438.56;5093082;28;20109;-65
2021/12/16 09:37:37;;;;;;;129.68;44.25;;;;;;;8.28;91.24;103435.78;5107176;28;20528;-68
2021/12/16 09:40:09;;;;;;;128.65;44.88;;;;;;;8.21;91.74;103442.28;5109968;28;20063;-68
2021/12/16 09:42:37;;;;;;;130.70;45.03;;;;;;;8.29;91.64;103439.28;5088689;28;20040;-68
2021/12/16 09:45:08;;;;;;;129.95;43.85;;;;;;;8.21;92.06;103448.44;5102013;28;20066;-68
2021/12/16 09:47:37;;;;;;;143.77;45.30;;;;;;;8.33;91.59;103440.84;5088610;28;20113;-69
2021/12/16 09:50:07;;;;;;;125.38;42.20;;;;;;;8.29;91.29;103434.84;5103199;28;20085;-69
2021/12/16 09:52:34;;;;;;;130.60;44.05;;;;;;;8.22;91.65;103446.63;5111105;28;20130;-69
2021/12/16 09:55:01;;;;;;;127.57;43.88;;;;;;;8.22;91.78;103446.63;5105732;28;20040;-69
2021/12/16 09:57:28;;;;;;;131.23;44.40;;;;;;;8.26;92.03;103435.84;5098063;28;20046;-69
2021/12/16 09:59:55;;;;;;;151.63;45.20;;;;;;;8.53;90.84;103442.56;5099595;28;20028;-69
2021/12/16 10:02:22;;;;;;;139.02;43.88;;;;;;;8.61;90.24;103440.41;5101722;28;20065;-69
2021/12/16 10:04:49;;;;;;;133.57;43.28;;;;;;;8.53;90.28;103435.50;5101277;28;20500;-69
2021/12/16 10:07:20;;;;;;;130.80;42.88;;;;;;;8.54;90.32;103444.28;5148207;27;20059;-68
2021/12/16 10:09:49;;;;;;;131.15;44.08;;;;;;;8.44;90.58;103442.09;5112399;27;20094;-68
2021/12/16 10:12:20;;;;;;;131.43;45.72;;;;;;;8.32;91.25;103436.50;5112639;28;20126;-69
2021/12/16 10:17:32;;;;;;;123.05;42.40;;;;;;;8.34;90.48;103435.47;5112835;28;20126;-68
2021/12/16 10:20:15;;;;;;;119.18;43.45;;;;;;;8.16;91.83;103433.72;5107260;28;20097;-69
2021/12/16 10:22:44;;;;;;;124.97;43.55;;;;;;;8.11;92.29;103431.28;5109596;28;20092;-69
2021/12/16 10:25:33;;;;;;;126.72;43.67;;;;;;;8.14;92.37;103432.94;5113095;28;20044;-68
2021/12/16 10:31:00;;;;;;;117.65;41.78;;;;;;;8.15;92.13;103424.06;5069250;27;20532;-69
2021/12/16 10:33:47;;;;;;;125.10;43.13;;;;;;;8.26;92.46;103435.00;5063347;28;20098;-68
2021/12/16 10:36:19;;;;;;;135.18;43.97;;;;;;;8.34;91.51;103426.69;5055293;28;20433;-67
2021/12/16 10:38:54;;;;;;;141.05;44.30;;;;;;;8.51;91.02;103425.91;5047032;28;20099;-68
2021/12/16 10:41:27;;;;;;;139.02;43.90;;;;;;;8.40;91.96;103434.31;5078892;28;20033;-68
2021/12/16 10:44:02;;;;;;;169.90;48.53;;;;;;;8.41;91.63;103431.59;5052746;28;20155;-68
2021/12/16 10:46:35;;;;;;;225.02;46.53;;;;;;;8.55;91.17;103427.47;5063401;28;20123;-67
2021/12/16 10:49:07;;;;;;;188.27;48.10;;;;;;;8.42;91.82;103428.09;5049213;28;20045;-68
2021/12/16 10:54:17;;;;;;;169.32;46.72;;;;;;;8.36;92.07;103436.25;5126932;27;20387;-70
2021/12/16 10:56:49;;;;;;;160.40;47.85;;;;;;;8.26;92.85;103438.50;5106369;28;20434;-70
2021/12/16 11:02:01;;;;;;;169.93;48.88;;;;;;;8.25;93.20;103449.16;5078237;28;20149;-70
2021/12/16 11:04:49;;;;;;;164.95;48.67;;;;;;;8.33;93.45;103447.00;5049277;28;20560;-71
2021/12/16 11:07:23;;;;;;;157.65;47.72;;;;;;;8.38;92.68;103439.69;5061576;28;20037;-70
2021/12/16 11:09:57;;;;;;;171.75;48.80;;;;;;;8.29;92.73;103450.72;5049664;28;20434;-70
2021/12/16 11:12:30;;;;;;;174.70;48.67;;;;;;;8.35;93.15;103450.44;5029699;28;20048;-69
2021/12/16 11:18:05;;;;;;;174.57;51.50;;;;;;;8.40;92.41;103450.19;5101353;27;20382;-68
2021/12/16 11:20:52;;;;;;;237.52;51.80;;;;;;;8.53;92.18;103453.13;5085770;28;20085;-70
2021/12/16 11:23:23;;;;;;;216.27;51.38;;;;;;;8.64;90.83;103451.69;5080674;28;20457;-70
2021/12/16 11:25:59;;;;;;;173.70;50.80;;;;;;;8.52;92.17;103451.44;5053884;28;20139;-70
2021/12/16 11:28:32;;;;;;;166.57;49.88;;;;;;;8.48;91.90;103456.03;5082739;28;20046;-70
2021/12/16 11:31:13;;;;;;;178.43;51.70;;;;;;;8.39;92.78;103457.28;5102674;28;20036;-70
2021/12/16 11:33:43;;;;;;;177.02;50.58;;;;;;;8.26;92.95;103448.22;5074214;28;20034;-70
2021/12/16 11:38:59;;;;;;;165.70;50.42;;;;;;;8.23;93.52;103443.94;5089268;27;20381;-69
2021/12/16 11:44:24;;;;;;;179.88;51.75;;;;;;;8.33;93.01;103443.47;5085394;27;20184;-70
2021/12/16 11:47:00;;;;;;;150.30;48.00;;;;;;;8.39;92.96;103440.56;5038260;28;20087;-70
2021/12/16 11:49:33;;;;;;;153.57;46.45;;;;;;;8.38;92.79;103450.25;5053448;28;20064;-68
2021/12/16 11:52:09;;;;;;;167.48;50.17;;;;;;;8.23;93.33;103443.06;5050301;28;20041;-68
2021/12/16 11:57:44;;;;;;;204.80;49.75;;;;;;;8.58;91.80;103445.84;5129733;27;20868;-70
2021/12/16 12:00:16;;;;;;;166.38;47.00;;;;;;;8.51;91.43;103439.13;5121756;28;20786;-70
2021/12/16 12:02:47;;;;;;;141.20;45.28;;;;;;;8.64;91.14;103443.75;5127288;28;20057;-69
2021/12/16 12:05:40;;;;;;;175.85;46.67;;;;;;;8.61;91.24;103440.41;5104565;28;20055;-69
2021/12/16 12:08:12;;;;;;;148.05;45.80;;;;;;;8.38;92.30;103450.25;5124064;28;20039;-69
2021/12/16 12:10:42;;;;;;;;;;;;;;;8.30;93.21;103436.56;5123298;28;20051;-70
2021/12/16 12:13:14;;;;;;;159.57;45.38;;;;;;;8.32;92.82;103436.50;5120481;27;19920;-69
2021/12/16 12:16:11;;;;;;;162.25;45.90;;;;;;;8.50;92.10;103438.28;5105719;28;20036;-69
2021/12/16 12:21:31;;;;;;;159.85;46.47;;;;;;;8.25;93.23;103430.63;5111855;27;20154;-69
2021/12/16 12:24:03;;;;;;;172.32;48.50;;;;;;;8.25;93.41;103431.47;5093213;28;20125;-70
2021/12/16 12:26:34;;;;;;;183.20;51.20;;;;;;;8.22;93.78;103436.94;5061363;28;20043;-70
2021/12/16 12:29:10;;;;;;;217.25;51.70;;;;;;;8.27;93.10;103426.97;5066354;28;20048;-70
2021/12/16 12:31:41;;;;;;;201.93;53.22;;;;;;;8.28;93.06;103433.16;5065672;28;20049;-70
2021/12/16 12:34:09;;;;;;;202.20;53.47;;;;;;;8.31;93.37;103426.84;5066310;28;20501;-70
2021/12/16 12:36:38;;;;;;;216.13;53.63;;;;;;;8.39;93.12;103438.78;5077436;28;20052;-70
2021/12/16 12:39:09;;;;;;;207.75;52.50;;;;;;;8.28;92.96;103422.56;5063828;28;20044;-69
2021/12/16 12:41:35;;;;;;;184.10;53.92;;;;;;;8.29;93.47;103434.00;5066947;28;20070;-70
2021/12/16 12:44:05;;;;;;;193.18;52.58;;;;;;;8.26;93.41;103424.44;5080084;28;20066;-70
2021/12/16 12:46:35;;;;;;;193.65;52.80;;;;;;;8.20;93.65;103430.84;5063345;28;20056;-70
2021/12/16 12:49:06;;;;;;;180.38;53.78;;;;;;;8.21;93.43;103432.56;5078907;28;20033;-70
2021/12/16 12:51:38;;;;;;;194.93;51.85;;;;;;;8.21;93.89;103431.72;5083599;28;20075;-70
2021/12/16 12:54:26;;;;;;;187.30;50.28;;;;;;;8.35;93.13;103436.31;5079077;28;20067;-70
2021/12/16 12:56:58;;;;;;;165.48;47.53;;;;;;;8.71;91.06;103435.50;5085689;28;20045;-70
2021/12/16 12:59:41;;;;;;;187.80;51.90;;;;;;;8.42;91.66;103432.50;5070993;28;20910;-69
2021/12/16 13:02:19;;;;;;;177.98;48.95;;;;;;;8.27;92.68;103442.00;5074850;28;20041;-69
2021/12/16 13:04:52;;;;;;;192.70;51.70;;;;;;;8.21;93.56;103445.78;5084215;28;20070;-70
2021/12/16 13:07:31;;;;;;;195.65;52.00;;;;;;;8.21;93.62;103444.94;5046819;28;20047;-69
2021/12/16 13:10:08;;;;;;;168.68;50.60;;;;;;;8.35;93.22;103433.69;5065376;28;20044;-70
2021/12/16 13:12:49;;;;;;;170.77;49.88;;;;;;;8.41;92.83;103433.41;5087281;28;20067;-69
2021/12/16 13:23:54;;;;;;;144.88;46.45;;;;;;;8.51;92.04;103441.78;5087819;28;20038;-69
2021/12/16 13:29:38;;;;;;;135.73;41.85;;;;;;;8.52;91.75;103436.41;5091640;27;20910;-69
2021/12/16 13:32:14;;;;;;;144.25;43.78;;;;;;;8.40;91.98;103437.84;5079875;28;20119;-68
2021/12/16 13:35:32;;;;;;;148.50;42.20;;;;;;;8.45;92.12;103435.00;5050610;28;20144;-69
2021/12/16 13:37:56;;;;;;;127.82;42.15;;;;;;;8.56;91.67;103439.78;5080114;28;20436;-69
2021/12/16 13:40:31;;;;;;;135.02;43.35;;;;;;;8.60;91.52;103446.63;5070281;28;20040;-69
2021/12/16 13:43:13;;;;;;;129.90;41.63;;;;;;;8.52;91.62;103444.34;5058654;28;20374;-69
2021/12/16 13:45:52;;;;;;;143.32;43.35;;;;;;;8.47;92.01;103450.81;5075555;28;20050;-69
2021/12/16 14:01:28;;;;;;;157.38;45.28;;;;;;;8.54;91.83;103454.88;5066659;28;20041;-68
2021/12/16 14:07:13;;;;;;;138.43;42.60;;;;;;;8.65;91.45;103455.19;5136525;27;20580;-70
2021/12/16 14:09:35;;;;;;;132.07;40.15;;;;;;;8.69;91.37;103454.09;5101197;28;20451;-70
2021/12/16 14:15:14;;;;;;;124.20;39.97;;;;;;;8.67;91.02;103463.06;5089660;28;20044;-70
2021/12/16 14:17:49;;;;;;;122.05;38.85;;;;;;;8.72;90.72;103459.25;5086826;28;20075;-65
2021/12/16 14:23:54;;;;;;;114.72;37.67;;;;;;;8.71;90.84;103461.97;5108562;28;20134;-63
2021/12/16 14:34:54;;;;;;;114.80;37.63;;;;;;;8.65;90.57;103460.50;5120673;27;20811;-64
2021/12/16 14:37:32;;;;;;;114.80;37.03;;;;;;;8.54;91.08;103453.06;5098305;28;20046;-63
2021/12/16 14:40:08;;;;;;;122.30;40.28;;;;;;;8.58;90.93;103459.06;5105586;28;20484;-66
2021/12/16 14:43:14;;;;;;;114.63;39.42;;;;;;;8.56;91.01;103456.50;5120844;28;20626;-63
2021/12/16 14:45:43;;;;;;;120.10;39.75;;;;;;;8.55;91.39;103453.91;5102704;28;20445;-64
2021/12/16 14:48:26;;;;;;;152.77;54.33;;;;;;;8.39;91.69;103462.56;5100243;28;20097;-69